Time;durP1;ratioP1;P1;durP2;ratioP2;P2;SDS_P1;SDS_P2;PMS_P1;PMS_P2;Temp;Humidity;BMP_temperature;BMP_pressure;BME280_temperature;BME280_humidity;BME280_pressure;Samples;Min_cycle;Max_cycle;Signal;HPM_P1;HPM_P2
2023/03/31 00:01:25;;;;;;;;;;;10.90;99.90;;;;;;5042971;28;20421;-69
2023/03/31 00:03:50;;;;;;;;;;;10.90;99.90;;;;;;5040357;28;208200;-72
2023/03/31 00:06:18;;;;;;;;;;;10.90;99.90;;;;;;4991286;28;274465;-71
2023/03/31 00:08:44;;;;;;;;;;;10.90;99.90;;;;;;5059929;28;19947;-71
2023/03/31 00:11:10;;;;;;;;;;;10.90;99.90;;;;;;5008215;28;216044;-71
2023/03/31 00:13:36;;;;;;;;;;;10.90;99.90;;;;;;5057729;28;20446;-70
2023/03/31 00:16:04;;;;;;;;;;;10.90;99.90;;;;;;5008611;28;212399;-70
2023/03/31 00:18:30;;;;;;;;;;;10.90;99.90;;;;;;5055075;28;19986;-69
2023/03/31 00:21:23;;;;;;;;;;;10.80;99.90;;;;;;5001845;28;207851;-69
2023/03/31 00:23:50;;;;;;;;;;;10.90;99.90;;;;;;5058492;28;206586;-70
2023/03/31 00:26:16;;;;;;;;;;;10.80;99.90;;;;;;5003037;28;37758;-70
2023/03/31 00:28:42;;;;;;;;;;;10.80;99.90;;;;;;5058535;28;19929;-71
2023/03/31 00:31:08;;;;;;;;;;;10.80;99.90;;;;;;4990136;28;206169;-71
2023/03/31 00:33:34;;;;;;;;;;;10.80;99.90;;;;;;5050922;28;19956;-71
2023/03/31 00:36:00;;;;;;;;;;;10.80;99.90;;;;;;4994600;28;208878;-71
2023/03/31 00:38:28;;;;;;;;;;;10.70;99.90;;;;;;5056796;28;19931;-70
2023/03/31 00:40:55;;;;;;;;;;;10.70;99.90;;;;;;5010414;28;207952;-69
2023/03/31 00:43:24;;;;;;;;;;;10.70;99.90;;;;;;5065457;28;19927;-72
2023/03/31 00:45:50;;;;;;;;;;;10.60;99.90;;;;;;4991230;28;208491;-71
2023/03/31 00:48:17;;;;;;;;;;;10.50;99.90;;;;;;5058426;28;19920;-70
2023/03/31 00:50:47;;;;;;;;;;;10.40;99.90;;;;;;4997123;28;209458;-71
2023/03/31 00:53:16;;;;;;;;;;;10.40;99.90;;;;;;5060683;28;19932;-71
2023/03/31 00:55:44;;;;;;;;;;;10.30;99.90;;;;;;4991800;28;207402;-71
2023/03/31 00:58:13;;;;;;;;;;;10.20;99.90;;;;;;5054729;28;19928;-69
2023/03/31 01:00:40;;;;;;;;;;;10.20;99.90;;;;;;4988600;28;204178;-71
2023/03/31 01:03:08;;;;;;;;;;;10.10;99.90;;;;;;5055669;28;19924;-71
2023/03/31 01:05:41;;;;;;;;;;;10.10;99.90;;;;;;4992613;28;214216;-70
2023/03/31 01:08:07;;;;;;;;;;;10.00;99.90;;;;;;5056683;28;19927;-70
2023/03/31 01:10:40;;;;;;;;;;;10.00;99.90;;;;;;5011207;28;107226;-69
2023/03/31 01:13:10;;;;;;;;;;;9.90;99.90;;;;;;5058268;28;19924;-71
2023/03/31 01:15:36;;;;;;;;;;;9.90;99.90;;;;;;4995762;28;220447;-70
2023/03/31 01:18:03;;;;;;;;;;;9.90;99.90;;;;;;5046006;28;19924;-70
2023/03/31 01:20:47;;;;;;;;;;;9.80;99.90;;;;;;4985837;28;207023;-71
2023/03/31 01:23:25;;;;;;;;;;;9.80;99.90;;;;;;5052606;28;19920;-69
2023/03/31 01:26:08;;;;;;;;;;;9.70;99.90;;;;;;5006183;28;207748;-69
2023/03/31 01:28:40;;;;;;;;;;;9.70;99.90;;;;;;5054715;28;19936;-70
2023/03/31 01:31:24;;;;;;;;;;;9.70;99.90;;;;;;5017279;28;206161;-70
2023/03/31 01:34:09;;;;;;;;;;;9.70;99.90;;;;;;5057000;28;211975;-70
2023/03/31 01:36:35;;;;;;;;;;;9.60;99.90;;;;;;5000391;28;210131;-72
2023/03/31 01:39:10;;;;;;;;;;;9.60;99.90;;;;;;5002763;28;212877;-71
2023/03/31 01:41:45;;;;;;;;;;;9.60;99.90;;;;;;5051332;28;20381;-70
2023/03/31 01:44:34;;;;;;;;;;;9.60;99.90;;;;;;5015808;28;209156;-71
2023/03/31 01:47:17;;;;;;;;;;;9.50;99.90;;;;;;5062700;28;20305;-70
2023/03/31 01:49:42;;;;;;;;;;;9.60;99.90;;;;;;4983203;28;207119;-70
2023/03/31 01:52:16;;;;;;;;;;;9.60;99.90;;;;;;5046692;28;20389;-70
2023/03/31 01:54:49;;;;;;;;;;;9.60;99.90;;;;;;5010420;28;207250;-72
2023/03/31 01:57:15;;;;;;;;;;;9.60;99.90;;;;;;5070703;28;20668;-68
2023/03/31 01:59:45;;;;;;;;;;;9.70;99.90;;;;;;5009487;28;197852;-71
2023/03/31 02:02:15;;;;;;;;;;;9.60;99.90;;;;;;5048183;28;20385;-71
2023/03/31 02:04:52;;;;;;;;;;;9.60;99.90;;;;;;5000357;28;211370;-70
2023/03/31 02:07:23;;;;;;;;;;;9.60;99.90;;;;;;5064644;28;19942;-70
2023/03/31 02:09:52;;;;;;;;;;;9.60;99.90;;;;;;5006987;28;206064;-70
2023/03/31 02:12:19;;;;;;;;;;;9.60;99.90;;;;;;5065203;28;19929;-70
2023/03/31 02:14:47;;;;;;;;;;;9.60;99.90;;;;;;5001630;28;207885;-69
2023/03/31 02:17:17;;;;;;;;;;;9.50;99.90;;;;;;5053102;28;19936;-69
2023/03/31 02:19:46;;;;;;;;;;;9.60;99.90;;;;;;4999263;28;206412;-71
2023/03/31 02:22:13;;;;;;;;;;;9.50;99.90;;;;;;5033192;28;20385;-70
2023/03/31 02:24:39;;;;;;;;;;;9.50;99.90;;;;;;5010301;28;208725;-71
2023/03/31 02:27:05;;;;;;;;;;;9.50;99.90;;;;;;5054953;28;19932;-71
2023/03/31 02:29:31;;;;;;;;;;;9.50;99.90;;;;;;5008928;28;218399;-70
2023/03/31 02:32:05;;;;;;;;;;;9.60;99.90;;;;;;5071644;28;19974;-70
2023/03/31 02:34:31;;;;;;;;;;;9.50;99.90;;;;;;5015722;28;209417;-71
2023/03/31 02:36:57;;;;;;;;;;;9.50;99.90;;;;;;5054125;28;19935;-71
2023/03/31 02:39:26;;;;;;;;;;;9.60;99.90;;;;;;5010959;28;225248;-70
2023/03/31 02:41:53;;;;;;;;;;;9.60;99.90;;;;;;5066743;28;19924;-70
2023/03/31 02:44:19;;;;;;;;;;;9.60;99.90;;;;;;5013324;28;207605;-70
2023/03/31 02:46:45;;;;;;;;;;;9.60;99.90;;;;;;5058141;28;20293;-71
2023/03/31 02:49:12;;;;;;;;;;;9.60;99.90;;;;;;5008865;28;208858;-71
2023/03/31 02:51:38;;;;;;;;;;;9.60;99.90;;;;;;5075905;28;19924;-71
2023/03/31 02:54:15;;;;;;;;;;;9.50;99.90;;;;;;5016534;28;206402;-70
2023/03/31 02:57:01;;;;;;;;;;;9.50;99.90;;;;;;5051528;28;19935;-71
2023/03/31 02:59:27;;;;;;;;;;;9.50;99.90;;;;;;5002704;28;216124;-70
2023/03/31 03:02:02;;;;;;;;;;;9.50;99.90;;;;;;5057076;28;19959;-71
2023/03/31 03:04:48;;;;;;;;;;;9.50;99.90;;;;;;5000065;28;214750;-71
2023/03/31 03:07:20;;;;;;;;;;;9.50;99.90;;;;;;5059387;28;19936;-71
2023/03/31 03:09:46;;;;;;;;;;;9.50;99.90;;;;;;5010969;28;209995;-71
2023/03/31 03:12:20;;;;;;;;;;;9.60;99.90;;;;;;5059974;28;19978;-71
2023/03/31 03:15:02;;;;;;;;;;;9.60;99.90;;;;;;5008625;28;238408;-71
2023/03/31 03:17:31;;;;;;;;;;;9.50;99.90;;;;;;5062210;28;19932;-71
2023/03/31 03:20:00;;;;;;;;;;;9.60;99.90;;;;;;5006797;28;209095;-70
2023/03/31 03:22:26;;;;;;;;;;;9.60;99.90;;;;;;5065254;28;19932;-70
2023/03/31 03:24:52;;;;;;;;;;;9.60;99.90;;;;;;4992994;28;230402;-69
2023/03/31 03:27:21;;;;;;;;;;;9.60;99.90;;;;;;5054876;28;19927;-69
2023/03/31 03:29:47;;;;;;;;;;;9.70;99.90;;;;;;5016179;28;206207;-70
2023/03/31 03:32:13;;;;;;;;;;;9.70;99.90;;;;;;5061715;28;21459;-71
2023/03/31 03:34:39;;;;;;;;;;;9.80;99.90;;;;;;5004271;28;217311;-70
2023/03/31 03:37:06;;;;;;;;;;;9.80;99.90;;;;;;5043071;28;19958;-69
2023/03/31 03:39:32;;;;;;;;;;;9.80;99.90;;;;;;4994402;28;206814;-72
2023/03/31 03:41:57;;;;;;;;;;;9.80;99.90;;;;;;5035649;28;20667;-70
2023/03/31 03:44:23;;;;;;;;;;;9.80;99.90;;;;;;4993451;28;209492;-70
2023/03/31 03:46:49;;;;;;;;;;;9.80;99.90;;;;;;5045236;28;20526;-70
2023/03/31 03:49:15;;;;;;;;;;;9.80;99.90;;;;;;5007527;28;213620;-72
2023/03/31 03:51:41;;;;;;;;;;;9.80;99.90;;;;;;5053391;28;19924;-70
2023/03/31 03:54:07;;;;;;;;;;;9.80;99.90;;;;;;5002436;28;207214;-70
2023/03/31 03:56:33;;;;;;;;;;;9.80;99.90;;;;;;5057453;28;19932;-73
2023/03/31 03:58:59;;;;;;;;;;;9.80;99.90;;;;;;4997153;28;209178;-70
2023/03/31 04:01:25;;;;;;;;;;;9.80;99.90;;;;;;5038712;28;20320;-70
2023/03/31 04:03:51;;;;;;;;;;;9.80;99.90;;;;;;5043410;28;209410;-70
2023/03/31 04:06:16;;;;;;;;;;;9.80;99.90;;;;;;4990307;28;230541;-71
2023/03/31 04:08:42;;;;;;;;;;;9.80;99.90;;;;;;5052259;28;19959;-70
2023/03/31 04:11:13;;;;;;;;;;;9.80;99.90;;;;;;5007246;28;208884;-70
2023/03/31 04:13:39;;;;;;;;;;;9.80;99.90;;;;;;5058892;28;20821;-70
2023/03/31 04:16:06;;;;;;;;;;;9.70;99.90;;;;;;4999322;28;211200;-69
2023/03/31 04:18:32;;;;;;;;;;;9.70;99.90;;;;;;5055462;28;19927;-70
2023/03/31 04:21:04;;;;;;;;;;;9.70;99.90;;;;;;4984842;28;208569;-70
2023/03/31 04:23:45;;;;;;;;;;;9.60;99.90;;;;;;5060504;28;19935;-71
2023/03/31 04:26:11;;;;;;;;;;;9.60;99.90;;;;;;5006779;28;168910;-72
2023/03/31 04:28:41;;;;;;;;;;;9.60;99.90;;;;;;5059855;28;20471;-72
2023/03/31 04:31:08;;;;;;;;;;;9.60;99.90;;;;;;5010721;28;219613;-72
2023/03/31 04:33:37;;;;;;;;;;;9.60;99.90;;;;;;5058272;28;19935;-73
2023/03/31 04:36:05;;;;;;;;;;;9.60;99.90;;;;;;4985324;28;183606;-73
2023/03/31 04:38:35;;;;;;;;;;;9.60;99.90;;;;;;5057220;28;20640;-72
2023/03/31 04:41:01;;;;;;;;;;;9.60;99.90;;;;;;4984604;28;209607;-72
2023/03/31 04:43:27;;;;;;;;;;;9.60;99.90;;;;;;5060163;28;20307;-70
2023/03/31 04:45:52;;;;;;;;;;;9.60;99.90;;;;;;5013365;28;208390;-73
2023/03/31 04:48:18;;;;;;;;;;;9.60;99.90;;;;;;5056050;28;20427;-74
2023/03/31 04:50:45;;;;;;;;;;;9.60;99.90;;;;;;5011801;28;211589;-72
2023/03/31 04:53:11;;;;;;;;;;;9.50;99.90;;;;;;5062664;28;19925;-71
2023/03/31 04:55:38;;;;;;;;;;;9.60;99.90;;;;;;5005491;28;216180;-72
2023/03/31 04:58:04;;;;;;;;;;;9.50;99.90;;;;;;5055123;28;19929;-72
2023/03/31 05:00:30;;;;;;;;;;;9.60;99.90;;;;;;5017230;28;222167;-72
2023/03/31 05:02:58;;;;;;;;;;;9.50;99.90;;;;;;5070688;28;19931;-71
2023/03/31 05:05:24;;;;;;;;;;;9.60;99.90;;;;;;5022066;28;208021;-70
2023/03/31 05:07:50;;;;;;;;;;;9.60;99.90;;;;;;5065838;28;19920;-70
2023/03/31 05:10:16;;;;;;;;;;;9.60;99.90;;;;;;5017128;28;210118;-71
2023/03/31 05:12:42;;;;;;;;;;;9.60;99.90;;;;;;5067620;28;19932;-71
2023/03/31 05:15:08;;;;;;;;;;;9.70;99.90;;;;;;4972971;28;1288938;-70
2023/03/31 05:17:35;;;;;;;;;;;9.70;99.90;;;;;;5067607;28;19928;-70
2023/03/31 05:20:04;;;;;;;;;;;9.70;99.90;;;;;;5001324;28;208133;-70
2023/03/31 05:22:32;;;;;;;;;;;9.60;99.90;;;;;;5053840;28;19943;-71
2023/03/31 05:24:58;;;;;;;;;;;9.60;99.90;;;;;;4992100;28;212206;-72
2023/03/31 05:27:24;;;;;;;;;;;9.60;99.90;;;;;;5053910;28;20538;-71
2023/03/31 05:29:50;;;;;;;;;;;9.70;99.90;;;;;;5004389;28;215515;-69
2023/03/31 05:32:16;;;;;;;;;;;9.60;99.90;;;;;;5067169;28;19931;-71
2023/03/31 05:34:42;;;;;;;;;;;9.60;99.90;;;;;;5005026;28;221799;-71
2023/03/31 05:37:08;;;;;;;;;;;9.70;99.90;;;;;;5069417;28;19951;-70
2023/03/31 05:39:34;;;;;;;;;;;9.60;99.90;;;;;;5006867;28;211524;-69
2023/03/31 05:42:01;;;;;;;;;;;9.70;99.90;;;;;;5056843;28;20364;-69
2023/03/31 05:44:27;;;;;;;;;;;9.70;99.90;;;;;;5013310;28;208348;-71
2023/03/31 05:46:53;;;;;;;;;;;9.70;99.90;;;;;;5053800;28;19928;-70
2023/03/31 05:49:19;;;;;;;;;;;9.70;99.90;;;;;;5022353;28;207655;-71
2023/03/31 05:51:46;;;;;;;;;;;9.70;99.90;;;;;;5070239;28;20582;-71
2023/03/31 05:54:12;;;;;;;;;;;9.60;99.90;;;;;;5003987;28;209437;-71
2023/03/31 05:56:38;;;;;;;;;;;9.70;99.90;;;;;;5070147;28;19939;-69
2023/03/31 05:59:04;;;;;;;;;;;9.70;99.90;;;;;;5003164;28;212165;-72
2023/03/31 06:01:30;;;;;;;;;;;9.70;99.90;;;;;;5068811;28;20578;-71
2023/03/31 06:03:56;;;;;;;;;;;9.80;99.90;;;;;;5030972;28;207991;-71
2023/03/31 06:06:22;;;;;;;;;;;9.70;99.90;;;;;;5042631;28;175262;-72
2023/03/31 06:08:48;;;;;;;;;;;9.70;99.90;;;;;;5064575;28;19932;-71
2023/03/31 06:11:18;;;;;;;;;;;9.70;99.90;;;;;;5006511;28;205646;-71
2023/03/31 06:13:44;;;;;;;;;;;9.70;99.90;;;;;;5064707;28;19940;-71
2023/03/31 06:16:12;;;;;;;;;;;9.70;99.90;;;;;;5015345;28;205133;-70
2023/03/31 06:18:38;;;;;;;;;;;9.70;99.90;;;;;;5059596;28;20137;-71
2023/03/31 06:21:05;;;;;;;;;;;9.70;99.90;;;;;;4982308;28;207370;-71
2023/03/31 06:23:31;;;;;;;;;;;9.80;99.90;;;;;;5072728;28;19931;-70
2023/03/31 06:26:05;;;;;;;;;;;9.70;99.90;;;;;;5018182;28;208927;-70
2023/03/31 06:28:31;;;;;;;;;;;9.70;99.90;;;;;;5064193;28;19928;-71
2023/03/31 06:31:02;;;;;;;;;;;9.70;99.90;;;;;;5021032;28;208950;-71
2023/03/31 06:33:28;;;;;;;;;;;9.70;99.90;;;;;;5062645;28;19925;-72
2023/03/31 06:35:54;;;;;;;;;;;9.80;99.90;;;;;;5000638;28;207316;-72
2023/03/31 06:38:20;;;;;;;;;;;9.70;99.90;;;;;;5075495;28;19955;-71
2023/03/31 06:40:46;;;;;;;;;;;9.80;99.90;;;;;;4993698;28;208752;-72
2023/03/31 06:43:12;;;;;;;;;;;9.70;99.90;;;;;;5055674;28;19928;-73
2023/03/31 06:45:38;;;;;;;;;;;9.70;99.90;;;;;;4989469;28;206873;-72
2023/03/31 06:48:04;;;;;;;;;;;9.80;99.90;;;;;;5051654;28;19921;-71
2023/03/31 06:50:30;;;;;;;;;;;9.80;99.90;;;;;;5011596;28;210390;-72
2023/03/31 06:52:57;;;;;;;;;;;9.80;99.90;;;;;;5059646;28;19947;-71
2023/03/31 06:55:23;;;;;;;;;;;9.80;99.90;;;;;;5002690;28;177236;-71
2023/03/31 06:57:49;;;;;;;;;;;9.80;99.90;;;;;;5055818;28;19928;-69
2023/03/31 07:00:15;;;;;;;;;;;9.80;99.90;;;;;;4992373;28;207024;-71
2023/03/31 07:02:42;;;;;;;;;;;9.90;99.90;;;;;;5047981;28;20400;-71
2023/03/31 07:05:08;;;;;;;;;;;9.90;99.90;;;;;;4992379;28;213631;-71
2023/03/31 07:07:34;;;;;;;;;;;9.90;99.90;;;;;;5055563;28;20032;-71
2023/03/31 07:09:59;;;;;;;;;;;9.90;99.90;;;;;;5008373;28;210318;-70
2023/03/31 07:12:25;;;;;;;;;;;9.80;99.90;;;;;;5066632;28;19935;-71
2023/03/31 07:14:51;;;;;;;;;;;9.90;99.90;;;;;;5009634;28;155527;-72
2023/03/31 07:17:17;;;;;;;;;;;9.90;99.90;;;;;;5055035;28;19931;-71
2023/03/31 07:19:46;;;;;;;;;;;9.90;99.90;;;;;;5011887;28;52771;-71
2023/03/31 07:22:15;;;;;;;;;;;9.90;99.90;;;;;;5063786;28;20301;-72
2023/03/31 07:24:41;;;;;;;;;;;9.90;99.90;;;;;;5017714;28;206931;-72
2023/03/31 07:27:07;;;;;;;;;;;9.90;99.90;;;;;;5069491;28;19928;-72
2023/03/31 07:29:33;;;;;;;;;;;9.90;99.90;;;;;;5008324;28;207580;-70
2023/03/31 07:31:59;;;;;;;;;;;10.00;99.90;;;;;;5063763;28;19921;-71
2023/03/31 07:34:26;;;;;;;;;;;9.90;99.90;;;;;;5003624;28;208840;-72
2023/03/31 07:36:54;;;;;;;;;;;10.00;99.90;;;;;;5055865;28;19924;-72
2023/03/31 07:39:19;;;;;;;;;;;10.00;99.90;;;;;;5006498;28;176683;-72
2023/03/31 07:41:45;;;;;;;;;;;10.00;99.90;;;;;;5050273;28;20440;-72
2023/03/31 07:44:11;;;;;;;;;;;9.90;99.90;;;;;;5020376;28;211141;-70
2023/03/31 07:46:38;;;;;;;;;;;10.00;99.90;;;;;;5047778;28;19924;-70
2023/03/31 07:49:04;;;;;;;;;;;10.10;99.90;;;;;;5000654;28;210167;-72
2023/03/31 07:51:30;;;;;;;;;;;10.10;99.90;;;;;;5059156;28;19927;-71
2023/03/31 07:53:56;;;;;;;;;;;10.10;99.90;;;;;;5011921;28;208967;-72
2023/03/31 07:56:23;;;;;;;;;;;10.10;99.90;;;;;;5046113;28;19921;-73
2023/03/31 07:58:50;;;;;;;;;;;10.10;99.90;;;;;;5046741;28;207487;-72
2023/03/31 08:01:17;;;;;;;;;;;10.10;99.90;;;;;;5014108;28;206120;-71
2023/03/31 08:03:44;;;;;;;;;;;10.10;99.90;;;;;;5060200;28;19925;-71
2023/03/31 08:06:10;;;;;;;;;;;10.10;99.90;;;;;;4983602;28;216785;-71
2023/03/31 08:08:37;;;;;;;;;;;10.20;99.90;;;;;;5061482;28;19936;-72
2023/03/31 08:11:03;;;;;;;;;;;10.20;99.90;;;;;;4999156;28;224976;-71
2023/03/31 08:13:29;;;;;;;;;;;10.20;99.90;;;;;;5059166;28;20258;-71
2023/03/31 08:15:55;;;;;;;;;;;10.30;99.90;;;;;;5015945;28;206721;-70
2023/03/31 08:18:21;;;;;;;;;;;10.20;99.90;;;;;;5056325;28;20316;-70
2023/03/31 08:20:48;;;;;;;;;;;10.20;99.90;;;;;;5021229;28;212277;-71
2023/03/31 08:23:14;;;;;;;;;;;10.30;99.90;;;;;;5046084;28;19921;-68
2023/03/31 08:25:40;;;;;;;;;;;10.30;99.90;;;;;;5007456;28;216117;-70
2023/03/31 08:28:09;;;;;;;;;;;10.30;99.90;;;;;;5057588;28;19928;-69
2023/03/31 08:30:38;;;;;;;;;;;10.30;99.90;;;;;;5019094;28;212387;-69
2023/03/31 08:33:04;;;;;;;;;;;10.40;99.90;;;;;;5061806;28;19921;-71
2023/03/31 08:35:30;;;;;;;;;;;10.40;99.90;;;;;;5012752;28;206622;-71
2023/03/31 08:37:56;;;;;;;;;;;10.40;99.90;;;;;;5057765;28;19984;-69
2023/03/31 08:40:24;;;;;;;;;;;10.30;99.90;;;;;;4992640;28;214970;-70
2023/03/31 08:42:52;;;;;;;;;;;10.40;99.90;;;;;;5057615;28;20412;-70
2023/03/31 08:45:27;;;;;;;;;;;10.40;99.90;;;;;;5008803;28;207556;-69
2023/03/31 08:47:59;;;;;;;;;;;10.40;99.90;;;;;;5060696;28;19920;-68
2023/03/31 08:50:27;;;;;;;;;;;10.40;99.90;;;;;;4996502;28;212763;-70
2023/03/31 08:53:07;;;;;;;;;;;10.50;99.90;;;;;;5051422;28;19932;-70
2023/03/31 08:55:41;;;;;;;;;;;10.40;99.90;;;;;;5015237;28;199938;-69
2023/03/31 08:58:28;;;;;;;;;;;10.50;99.90;;;;;;5057967;28;20417;-68
2023/03/31 09:01:00;;;;;;;;;;;10.40;99.90;;;;;;4999436;28;211760;-70
2023/03/31 09:03:38;;;;;;;;;;;10.40;99.90;;;;;;5053811;28;20649;-70
2023/03/31 09:06:07;;;;;;;;;;;10.40;99.90;;;;;;4987353;28;208716;-71
2023/03/31 09:08:36;;;;;;;;;;;10.40;99.90;;;;;;5075316;28;19935;-70
2023/03/31 09:11:09;;;;;;;;;;;10.60;99.90;;;;;;5026583;28;204986;-69
2023/03/31 09:13:44;;;;;;;;;;;10.60;99.90;;;;;;5061167;28;19924;-69
2023/03/31 09:16:10;;;;;;;;;;;10.70;99.90;;;;;;5007215;28;206970;-69
2023/03/31 09:18:37;;;;;;;;;;;10.60;99.90;;;;;;5057849;28;20239;-71
2023/03/31 09:21:03;;;;;;;;;;;10.80;99.90;;;;;;5015429;28;215065;-70
2023/03/31 09:23:41;;;;;;;;;;;10.70;99.90;;;;;;5070391;28;19971;-67
2023/03/31 09:26:11;;;;;;;;;;;10.70;99.90;;;;;;5014511;28;206123;-69
2023/03/31 09:28:39;;;;;;;;;;;10.70;99.90;;;;;;5058623;28;19932;-68
2023/03/31 09:31:16;;;;;;;;;;;10.70;99.90;;;;;;5011830;28;210866;-70
2023/03/31 09:33:44;;;;;;;;;;;10.80;99.90;;;;;;5052782;28;19924;-71
2023/03/31 09:36:17;;;;;;;;;;;11.00;99.90;;;;;;5009238;28;207574;-69
2023/03/31 09:38:43;;;;;;;;;;;11.10;99.90;;;;;;5058264;28;19925;-69
2023/03/31 09:41:11;;;;;;;;;;;11.10;99.90;;;;;;5013570;28;211324;-70
2023/03/31 09:43:40;;;;;;;;;;;11.10;99.90;;;;;;5057201;28;19931;-68
2023/03/31 09:46:14;;;;;;;;;;;11.10;99.90;;;;;;5008710;28;79482;-68
2023/03/31 09:48:43;;;;;;;;;;;11.10;99.90;;;;;;5057383;28;19925;-67
2023/03/31 09:51:15;;;;;;;;;;;11.10;99.90;;;;;;4993692;28;207884;-69
2023/03/31 09:53:50;;;;;;;;;;;11.10;99.90;;;;;;5061268;28;19924;-69
2023/03/31 09:56:35;;;;;;;;;;;11.10;99.90;;;;;;5000584;28;254359;-69
2023/03/31 09:59:01;;;;;;;;;;;11.10;99.90;;;;;;5001773;28;207965;-70
2023/03/31 10:01:28;;;;;;;;;;;11.20;99.90;;;;;;5071573;28;19940;-68
2023/03/31 10:03:55;;;;;;;;;;;11.20;99.90;;;;;;5043377;28;213141;-69
2023/03/31 10:06:22;;;;;;;;;;;11.30;99.90;;;;;;4999173;28;19920;-69
2023/03/31 10:08:54;;;;;;;;;;;11.30;99.90;;;;;;5055768;28;19921;-69
2023/03/31 10:11:20;;;;;;;;;;;11.20;99.90;;;;;;4994822;28;192737;-70
2023/03/31 10:14:02;;;;;;;;;;;11.30;99.90;;;;;;5059205;28;19924;-70
2023/03/31 10:16:28;;;;;;;;;;;11.20;99.90;;;;;;5005050;28;43443;-70
2023/03/31 10:18:56;;;;;;;;;;;11.20;99.90;;;;;;5034503;28;206285;-70
2023/03/31 10:21:26;;;;;;;;;;;11.20;99.90;;;;;;5009684;28;19969;-70
2023/03/31 10:23:52;;;;;;;;;;;11.20;99.90;;;;;;5048789;28;210513;-71
2023/03/31 10:26:24;;;;;;;;;;;11.20;99.90;;;;;;5002880;28;205020;-70
2023/03/31 10:28:51;;;;;;;;;;;11.20;99.90;;;;;;5058452;28;19920;-71
2023/03/31 10:31:32;;;;;;;;;;;11.20;99.90;;;;;;4999384;28;180252;-70
2023/03/31 10:34:03;;;;;;;;;;;11.30;99.90;;;;;;5029598;28;210205;-71
2023/03/31 10:36:30;;;;;;;;;;;11.40;99.90;;;;;;5046510;28;19921;-69
2023/03/31 10:38:56;;;;;;;;;;;11.50;99.90;;;;;;5019602;28;210870;-70
2023/03/31 10:41:24;;;;;;;;;;;11.60;99.90;;;;;;5045907;28;19927;-70
2023/03/31 10:43:51;;;;;;;;;;;12.00;99.90;;;;;;5061370;28;19928;-68
2023/03/31 10:46:17;;;;;;;;;;;12.20;99.90;;;;;;5035214;28;54052;-70
2023/03/31 10:48:44;;;;;;;;;;;12.40;99.90;;;;;;5060377;28;19921;-68
2023/03/31 10:51:17;;;;;;;;;;;12.60;99.90;;;;;;5017469;28;206628;-68
2023/03/31 10:53:47;;;;;;;;;;;12.80;99.90;;;;;;5060348;28;19943;-67
2023/03/31 10:56:35;;;;;;;;;;;12.90;99.90;;;;;;5005970;28;208247;-68
2023/03/31 10:59:01;;;;;;;;;;;12.80;99.90;;;;;;5010397;28;207314;-69
2023/03/31 11:01:31;;;;;;;;;;;13.00;99.90;;;;;;5073281;28;19980;-68
2023/03/31 11:04:22;;;;;;;;;;;12.80;99.90;;;;;;5018357;28;207427;-69
2023/03/31 11:06:54;;;;;;;;;;;12.90;99.90;;;;;;5030115;28;130920;-67
2023/03/31 11:09:29;;;;;;;;;;;13.00;99.90;;;;;;5005007;28;208398;-69
2023/03/31 11:12:18;;;;;;;;;;;13.50;99.90;;;;;;5064174;28;19924;-67
2023/03/31 11:14:58;;;;;;;;;;;13.80;99.90;;;;;;5009516;28;222902;-69
2023/03/31 11:17:42;;;;;;;;;;;13.80;99.90;;;;;;5051396;28;20192;-70
2023/03/31 11:20:14;;;;;;;;;;;13.80;99.90;;;;;;4999109;28;214101;-68
2023/03/31 11:22:43;;;;;;;;;;;13.50;99.90;;;;;;5053490;28;19931;-68
2023/03/31 11:25:15;;;;;;;;;;;13.40;99.90;;;;;;5010322;28;212927;-68
2023/03/31 11:27:41;;;;;;;;;;;13.10;99.90;;;;;;5064414;28;20007;-69
2023/03/31 11:30:19;;;;;;;;;;;12.80;99.90;;;;;;5003398;28;212958;-68
2023/03/31 11:32:56;;;;;;;;;;;12.70;99.90;;;;;;5061209;28;19924;-69
2023/03/31 11:35:34;;;;;;;;;;;12.80;99.90;;;;;;5011149;28;207249;-70
2023/03/31 11:38:19;;;;;;;;;;;13.10;99.90;;;;;;5063251;28;19924;-67
2023/03/31 11:41:00;;;;;;;;;;;13.30;99.90;;;;;;4990496;28;206384;-68
2023/03/31 11:43:32;;;;;;;;;;;13.10;99.90;;;;;;5056990;28;19924;-68
2023/03/31 11:46:12;;;;;;;;;;;13.10;99.90;;;;;;5008425;28;237114;-70
2023/03/31 11:48:51;;;;;;;;;;;13.00;99.90;;;;;;5056882;28;20400;-69
2023/03/31 11:51:20;;;;;;;;;;;13.10;99.90;;;;;;4993202;28;205397;-69
2023/03/31 11:53:47;;;;;;;;;;;13.00;99.90;;;;;;5063705;28;19988;-70
2023/03/31 11:56:13;;;;;;;;;;;13.10;99.90;;;;;;4987274;28;209921;-69
2023/03/31 11:58:43;;;;;;;;;;;12.90;99.90;;;;;;5059332;28;19929;-68
2023/03/31 12:01:28;;;;;;;;;;;13.00;99.90;;;;;;5020341;28;206302;-69
2023/03/31 12:04:05;;;;;;;;;;;12.90;99.90;;;;;;5031494;28;226263;-69
2023/03/31 12:06:39;;;;;;;;;;;13.00;99.90;;;;;;5008595;28;20393;-69
2023/03/31 12:09:22;;;;;;;;;;;13.00;99.90;;;;;;5013110;28;211743;-68
2023/03/31 12:12:00;;;;;;;;;;;13.10;99.90;;;;;;5071068;28;19921;-68
2023/03/31 12:14:26;;;;;;;;;;;13.00;99.90;;;;;;4996085;28;222854;-70
2023/03/31 12:16:54;;;;;;;;;;;13.00;99.90;;;;;;5037708;28;19928;-69
2023/03/31 12:19:26;;;;;;;;;;;13.00;99.90;;;;;;4992527;28;207201;-69
2023/03/31 12:21:59;;;;;;;;;;;13.00;99.90;;;;;;5039632;28;19932;-69
2023/03/31 12:24:25;;;;;;;;;;;13.10;99.90;;;;;;5001381;28;207132;-69
2023/03/31 12:26:51;;;;;;;;;;;13.20;99.90;;;;;;5055570;28;19932;-70
2023/03/31 12:29:32;;;;;;;;;;;13.40;99.90;;;;;;5022332;28;202946;-68
2023/03/31 12:32:00;;;;;;;;;;;13.50;99.90;;;;;;5054151;28;19928;-69
2023/03/31 12:34:27;;;;;;;;;;;13.80;99.90;;;;;;5012558;28;205338;-70
2023/03/31 12:37:13;;;;;;;;;;;14.00;99.90;;;;;;5073725;28;19934;-69
2023/03/31 12:39:41;;;;;;;;;;;14.30;99.90;;;;;;5001126;28;178045;-69
2023/03/31 12:42:10;;;;;;;;;;;14.20;99.90;;;;;;5062176;28;19924;-69
2023/03/31 12:44:49;;;;;;;;;;;13.90;99.90;;;;;;5005200;28;202128;-68
2023/03/31 12:47:27;;;;;;;;;;;13.90;99.90;;;;;;5059929;28;20432;-69
2023/03/31 12:50:02;;;;;;;;;;;13.90;99.90;;;;;;5006054;28;206386;-67
2023/03/31 12:52:41;;;;;;;;;;;14.00;99.90;;;;;;5066321;28;20344;-68
2023/03/31 12:55:09;;;;;;;;;;;14.10;99.90;;;;;;5013571;28;211954;-68
2023/03/31 12:57:36;;;;;;;;;;;14.40;99.90;;;;;;5062101;28;20385;-68
2023/03/31 13:00:07;;;;;;;;;;;14.30;99.90;;;;;;5013465;28;209118;-68
2023/03/31 13:02:33;;;;;;;;;;;14.20;99.90;;;;;;5065867;28;19928;-68
2023/03/31 13:04:59;;;;;;;;;;;14.00;99.90;;;;;;4996974;28;212087;-67
2023/03/31 13:07:25;;;;;;;;;;;13.80;99.90;;;;;;5060493;28;19932;-70
2023/03/31 13:10:11;;;;;;;;;;;13.70;99.90;;;;;;5003432;28;276719;-68
2023/03/31 13:12:37;;;;;;;;;;;13.70;99.90;;;;;;5039860;28;20336;-67
2023/03/31 13:15:04;;;;;;;;;;;13.70;99.90;;;;;;5005856;28;206579;-68
2023/03/31 13:17:31;;;;;;;;;;;13.60;99.90;;;;;;5062563;28;20404;-67
2023/03/31 13:20:31;;;;;;;;;;;13.50;99.90;;;;;;5004456;28;209058;-68
2023/03/31 13:23:02;;;;;;;;;;;13.40;99.90;;;;;;5056765;28;19924;-69
2023/03/31 13:25:28;;;;;;;;;;;13.50;99.90;;;;;;5004437;28;194697;-69
2023/03/31 13:27:55;;;;;;;;;;;13.50;99.90;;;;;;5054179;28;19958;-69
2023/03/31 13:30:39;;;;;;;;;;;13.40;99.90;;;;;;4996543;28;236081;-69
2023/03/31 13:33:07;;;;;;;;;;;13.40;99.90;;;;;;5057390;28;19931;-69
2023/03/31 13:35:35;;;;;;;;;;;13.30;99.90;;;;;;5005385;28;243562;-70
2023/03/31 13:38:16;;;;;;;;;;;13.10;99.90;;;;;;5056069;28;19932;-69
2023/03/31 13:40:51;;;;;;;;;;;12.80;99.90;;;;;;5001281;28;209094;-68
2023/03/31 13:43:32;;;;;;;;;;;12.60;99.90;;;;;;5057676;28;19938;-69
2023/03/31 13:46:13;;;;;;;;;;;12.40;99.90;;;;;;5020432;28;207731;-68
2023/03/31 13:49:09;;;;;;;;;;;12.30;99.90;;;;;;5059828;28;20318;-70
2023/03/31 13:51:54;;;;;;;;;;;12.20;99.90;;;;;;4980913;28;92621;-68
2023/03/31 13:54:26;;;;;;;;;;;12.00;99.90;;;;;;5018957;28;160988;-68
2023/03/31 13:57:04;;;;;;;;;;;12.00;99.90;;;;;;5062719;28;20541;-69
2023/03/31 13:59:43;;;;;;;;;;;12.00;99.90;;;;;;5004038;28;207575;-70
2023/03/31 14:02:27;;;;;;;;;;;12.00;99.90;;;;;;5059250;28;19932;-71
2023/03/31 14:05:12;;;;;;;;;;;11.80;99.90;;;;;;4985765;28;209142;-72
2023/03/31 14:07:53;;;;;;;;;;;11.70;99.90;;;;;;5052720;28;19940;-72
2023/03/31 14:10:32;;;;;;;;;;;11.60;99.90;;;;;;5009516;28;206552;-72
2023/03/31 14:13:05;;;;;;;;;;;11.80;99.90;;;;;;5064061;28;19920;-72
2023/03/31 14:15:31;;;;;;;;;;;12.00;99.90;;;;;;5028915;28;160479;-71
2023/03/31 14:17:57;;;;;;;;;;;12.50;99.90;;;;;;5063909;28;19940;-73
2023/03/31 14:20:26;;;;;;;;;;;12.70;99.90;;;;;;5006105;28;207221;-73
2023/03/31 14:23:03;;;;;;;;;;;13.00;99.90;;;;;;5053034;28;19935;-70
2023/03/31 14:25:29;;;;;;;;;;;12.70;99.90;;;;;;4981731;28;208342;-69
2023/03/31 14:27:57;;;;;;;;;;;12.90;99.90;;;;;;5048800;28;19927;-70
2023/03/31 14:30:37;;;;;;;;;;;13.30;99.90;;;;;;5006586;28;219151;-68
2023/03/31 14:33:23;;;;;;;;;;;13.60;99.90;;;;;;5057967;28;19924;-69